Dades meteomassalio
Diari Summary for Abril 6, 2017 Units:  English    Metric   Both
« Previous Day
Next Day »
Diari Semanal Mensual Anual Personalitzat
  Maxima: Minima: Mijana:
Temperatura: TemperatureC °F 8.1 °F 14.1 °F
Rosada: DewpointC °F 2.8 °F 5.3 °F
Humitat: Humidity % 31 % 58 %
Velocitat del vent: WindSpeedKMH mph 0.0 mph 18.5 mph
Racha vent: WindSpeedGustKMH mph - -
Vent:- - West
Pressio: PressurehPa in 1015.8 in -
Pluja: 0.0 in    
Historical Graphs
 
 
Tabular Data for Abril 6, 2017
Time Temperature Dew Point Pressure Wind Wind Speed Wind Gust Humidity Rainfall Rate (Hourly) solar Conditions
TemperatureC °F DewpointC °F PressurehPa in Calm     Humidity % HourlyPrecipMM in SolarRadiationWatts/m^2 W/m2 Conditions
00:04 11.6 °F 6.3 °F 1021.6 in West 18.5 mph 18.5 mph 70 % 0.0 in 0.0 W/m2 CLR
00:09 11.6 °F 6.3 °F 1021.6 in WNW 22.2 mph 22.2 mph 70 % 0.0 in 0.0 W/m2 CLR
00:14 11.5 °F 6.2 °F 1021.2 in West 29.6 mph 29.6 mph 70 % 0.0 in 0.0 W/m2 CLR
00:19 11.4 °F 6.2 °F 1021.2 in West 24.1 mph 24.1 mph 70 % 0.0 in 0.0 W/m2 CLR
00:24 11.3 °F 6.3 °F 1021.2 in West 33.3 mph 33.3 mph 71 % 0.0 in 0.0 W/m2 CLR
00:29 11.3 °F 6.3 °F 1021.2 in West 31.5 mph 31.5 mph 71 % 0.0 in 0.0 W/m2 CLR
00:34 11.3 °F 6.4 °F 1021.2 in WSW 27.4 mph 27.4 mph 72 % 0.0 in 0.0 W/m2 CLR
00:39 11.2 °F 6.3 °F 1021.2 in West 27.8 mph 27.8 mph 72 % 0.0 in 0.0 W/m2 CLR
00:44 11.2 °F 6.3 °F 1021.2 in West 35.4 mph 35.4 mph 72 % 0.0 in 0.0 W/m2 CLR
00:49 11.2 °F 6.3 °F 1021.2 in West 25.9 mph 25.9 mph 72 % 0.0 in 0.0 W/m2 CLR
00:54 11.1 °F 6.3 °F 1021.6 in West 20.4 mph 20.4 mph 72 % 0.0 in 0.0 W/m2 CLR
00:59 11.1 °F 6.4 °F 1021.6 in West 20.9 mph 20.9 mph 73 % 0.0 in 0.0 W/m2 CLR
01:04 11.0 °F 6.3 °F 1021.6 in West 27.8 mph 27.8 mph 73 % 0.0 in 0.0 W/m2 CLR
01:09 11.0 °F 6.3 °F 1021.6 in West 22.2 mph 22.2 mph 73 % 0.0 in 0.0 W/m2 CLR
01:14 10.9 °F 6.3 °F 1021.6 in West 20.4 mph 20.4 mph 73 % 0.0 in 0.0 W/m2 CLR
01:19 10.8 °F 6.2 °F 1021.6 in West 22.2 mph 22.2 mph 73 % 0.0 in 0.0 W/m2 CLR
01:24 10.8 °F 6.1 °F 1021.6 in West 24.1 mph 24.1 mph 73 % 0.0 in 0.0 W/m2 CLR
01:29 10.8 °F 6.3 °F 1021.6 in West 20.9 mph 21.7 mph 74 % 0.0 in 0.0 W/m2 CLR
01:35 10.7 °F 6.3 °F 1021.6 in WSW 20.9 mph 20.9 mph 74 % 0.0 in 0.0 W/m2 CLR
01:40 10.7 °F 6.2 °F 1021.6 in WSW 25.9 mph 25.9 mph 74 % 0.0 in 0.0 W/m2 CLR
01:45 10.7 °F 6.2 °F 1021.6 in WSW 24.1 mph 24.1 mph 74 % 0.0 in 0.0 W/m2 CLR
01:50 10.6 °F 6.2 °F 1021.6 in West 20.9 mph 21.1 mph 74 % 0.0 in 0.0 W/m2 CLR
01:55 10.5 °F 6.1 °F 1021.6 in WSW 22.2 mph 22.2 mph 74 % 0.0 in 0.0 W/m2 CLR
02:00 10.4 °F 6.2 °F 1021.6 in WSW 22.2 mph 22.2 mph 75 % 0.0 in 0.0 W/m2 CLR
02:05 10.3 °F 6.1 °F 1021.6 in West 18.5 mph 18.5 mph 75 % 0.0 in 0.0 W/m2 CLR
02:10 10.2 °F 6.0 °F 1021.2 in West 16.7 mph 16.7 mph 75 % 0.0 in 0.0 W/m2 CLR
02:15 10.3 °F 6.1 °F 1021.6 in West 24.1 mph 24.1 mph 75 % 0.0 in 0.0 W/m2 CLR
02:20 10.3 °F 6.1 °F 1021.6 in West 22.2 mph 22.2 mph 75 % 0.0 in 0.0 W/m2 CLR
02:25 10.3 °F 6.1 °F 1021.9 in WNW 16.7 mph 16.7 mph 75 % 0.0 in 0.0 W/m2 CLR
02:30 10.2 °F 5.9 °F 1021.6 in West 18.5 mph 18.5 mph 75 % 0.0 in 0.0 W/m2 CLR
02:35 10.0 °F 5.9 °F 1021.6 in West 18.5 mph 18.5 mph 76 % 0.0 in 0.0 W/m2 CLR
02:40 10.1 °F 6.0 °F 1021.6 in WNW 18.5 mph 18.5 mph 76 % 0.0 in 0.0 W/m2 CLR
02:45 10.1 °F 6.0 °F 1021.6 in West 18.5 mph 18.5 mph 76 % 0.0 in 0.0 W/m2 CLR
02:50 10.0 °F 5.9 °F 1021.6 in WSW 22.2 mph 22.2 mph 76 % 0.0 in 0.0 W/m2 CLR
02:55 10.0 °F 5.9 °F 1021.6 in West 13.0 mph 13.0 mph 76 % 0.0 in 0.0 W/m2 CLR
03:00 9.9 °F 5.9 °F 1021.6 in West 13.0 mph 13.0 mph 76 % 0.0 in 0.0 W/m2 CLR
03:05 9.9 °F 5.8 °F 1021.6 in West 22.2 mph 22.2 mph 76 % 0.0 in 0.0 W/m2 CLR
03:10 9.9 °F 5.8 °F 1021.6 in WSW 16.7 mph 16.7 mph 76 % 0.0 in 0.0 W/m2 CLR
03:15 9.8 °F 5.7 °F 1021.6 in SW 9.3 mph 9.3 mph 76 % 0.0 in 0.0 W/m2 CLR
03:20 9.8 °F 5.7 °F 1021.6 in West 13.0 mph 13.0 mph 76 % 0.0 in 0.0 W/m2 CLR
03:30 9.8 °F 5.7 °F 1021.6 in WSW 16.7 mph 16.7 mph 76 % 0.0 in 0.0 W/m2 CLR
03:35 9.8 °F 5.7 °F 1021.9 in WSW 11.1 mph 11.1 mph 76 % 0.0 in 0.0 W/m2 CLR
03:40 9.7 °F 5.6 °F 1021.6 in WSW 14.8 mph 14.8 mph 76 % 0.0 in 0.0 W/m2 CLR
03:45 9.6 °F 5.6 °F 1021.6 in WSW 11.1 mph 11.1 mph 76 % 0.0 in 0.0 W/m2 CLR
03:50 9.6 °F 5.7 °F 1021.6 in West 18.5 mph 18.5 mph 77 % 0.0 in 0.0 W/m2 CLR
03:55 9.6 °F 5.8 °F 1021.6 in West 18.5 mph 18.5 mph 77 % 0.0 in 0.0 W/m2 CLR
04:10 9.6 °F 5.7 °F 1021.6 in West 18.5 mph 18.5 mph 77 % 0.0 in 0.0 W/m2 CLR
04:15 9.5 °F 5.7 °F 1021.6 in WSW 16.7 mph 16.7 mph 77 % 0.0 in 0.0 W/m2 CLR
04:20 9.4 °F 5.6 °F 1021.6 in WSW 9.3 mph 9.3 mph 77 % 0.0 in 0.0 W/m2 CLR
04:25 9.3 °F 5.5 °F 1021.6 in WSW 11.1 mph 11.1 mph 77 % 0.0 in 0.0 W/m2 CLR
04:30 9.2 °F 5.6 °F 1021.6 in West 12.9 mph 12.9 mph 78 % 0.0 in 0.0 W/m2 CLR
04:35 9.2 °F 5.6 °F 1021.6 in West 16.1 mph 16.1 mph 78 % 0.0 in 0.0 W/m2 CLR
04:40 9.3 °F 5.6 °F 1021.6 in WSW 20.9 mph 20.9 mph 78 % 0.0 in 0.0 W/m2 CLR
04:45 9.4 °F 5.7 °F 1021.6 in WSW 18.5 mph 18.5 mph 78 % 0.0 in 0.0 W/m2 CLR
04:50 9.4 °F 5.6 °F 1021.6 in SSW 20.4 mph 20.4 mph 77 % 0.0 in 0.0 W/m2 CLR
05:00 9.5 °F 5.7 °F 1021.6 in West 16.7 mph 16.7 mph 77 % 0.0 in 0.0 W/m2 CLR
05:05 9.5 °F 5.7 °F 1021.6 in West 18.5 mph 18.5 mph 77 % 0.0 in 0.0 W/m2 CLR
05:10 9.5 °F 5.7 °F 1021.6 in West 22.2 mph 22.2 mph 77 % 0.0 in 0.0 W/m2 CLR
05:15 9.6 °F 5.8 °F 1021.6 in WNW 18.5 mph 18.5 mph 77 % 0.0 in 0.0 W/m2 CLR
05:20 9.6 °F 5.8 °F 1021.6 in West 18.5 mph 18.5 mph 77 % 0.0 in 0.0 W/m2 CLR
05:25 9.6 °F 5.7 °F 1021.6 in WSW 20.9 mph 20.9 mph 77 % 0.0 in 0.0 W/m2 CLR
05:30 9.6 °F 5.7 °F 1021.2 in WSW 22.2 mph 22.2 mph 77 % 0.0 in 0.0 W/m2 CLR
05:35 9.6 °F 5.8 °F 1021.2 in WNW 24.1 mph 24.1 mph 77 % 0.0 in 0.0 W/m2 CLR
05:40 9.5 °F 5.8 °F 1021.2 in West 22.5 mph 22.5 mph 78 % 0.0 in 0.0 W/m2 CLR
05:45 9.6 °F 5.7 °F 1021.2 in West 25.9 mph 25.9 mph 77 % 0.0 in 0.0 W/m2 CLR
05:50 9.5 °F 5.7 °F 1021.2 in West 18.5 mph 18.5 mph 77 % 0.0 in 0.0 W/m2 CLR
05:55 9.4 °F 5.7 °F 1021.2 in WNW 18.5 mph 18.5 mph 78 % 0.0 in 0.0 W/m2 CLR
06:00 9.3 °F 5.7 °F 1021.2 in West 18.5 mph 18.5 mph 78 % 0.0 in 0.0 W/m2 CLR
06:05 9.3 °F 5.7 °F 1021.6 in West 16.7 mph 16.7 mph 78 % 0.0 in 0.0 W/m2 CLR
06:10 9.3 °F 5.6 °F 1021.2 in West 18.5 mph 18.5 mph 78 % 0.0 in 0.0 W/m2 CLR
06:15 9.3 °F 5.6 °F 1021.2 in West 13.0 mph 13.0 mph 78 % 0.0 in 0.0 W/m2 CLR
06:20 9.2 °F 5.7 °F 1021.6 in West 16.7 mph 16.7 mph 79 % 0.0 in 0.0 W/m2 CLR
06:25 9.2 °F 5.7 °F 1021.6 in WSW 13.0 mph 13.0 mph 79 % 0.0 in 0.0 W/m2 CLR
06:30 9.0 °F 5.6 °F 1021.6 in WSW 5.6 mph 5.6 mph 79 % 0.0 in 0.0 W/m2 CLR
06:35 8.8 °F 5.4 °F 1021.6 in SW 13.0 mph 13.0 mph 79 % 0.0 in 0.0 W/m2 CLR
06:40 8.7 °F 5.4 °F 1021.6 in WSW 7.4 mph 7.4 mph 80 % 0.0 in 0.0 W/m2 CLR
06:45 8.5 °F 5.2 °F 1021.6 in WSW 13.0 mph 13.0 mph 80 % 0.0 in 0.0 W/m2 CLR
06:51 8.4 °F 5.3 °F 1021.6 in WSW 11.1 mph 11.1 mph 81 % 0.0 in 0.0 W/m2 CLR
06:56 8.3 °F 5.3 °F 1021.6 in WSW 5.6 mph 5.6 mph 81 % 0.0 in 0.0 W/m2 CLR
07:01 8.3 °F 5.3 °F 1021.6 in SW 5.6 mph 5.6 mph 81 % 0.0 in 0.0 W/m2 CLR
07:11 8.3 °F 5.3 °F 1021.9 in SW 5.6 mph 6.6 mph 81 % 0.0 in 0.0 W/m2 CLR
07:16 8.3 °F 5.2 °F 1021.9 in SW 7.4 mph 7.4 mph 81 % 0.0 in 0.0 W/m2 CLR
07:21 8.2 °F 5.2 °F 1021.9 in SW 7.4 mph 7.4 mph 81 % 0.0 in 0.0 W/m2 CLR
07:26 8.2 °F 5.1 °F 1021.9 in SW 5.6 mph 5.6 mph 81 % 0.0 in 0.0 W/m2 OVC
07:31 8.1 °F 5.2 °F 1021.9 in SW 9.3 mph 9.3 mph 82 % 0.0 in 0.0 W/m2 OVC
07:36 8.2 °F 5.1 °F 1021.9 in SW 5.6 mph 5.6 mph 81 % 0.0 in 5.0 W/m2 OVC
07:41 8.1 °F 5.2 °F 1021.9 in SW 9.3 mph 9.3 mph 82 % 0.0 in 7.0 W/m2 BKN
07:46 8.2 °F 5.3 °F 1021.9 in SW 7.4 mph 7.4 mph 82 % 0.0 in 11.0 W/m2 BKN
07:51 8.2 °F 5.1 °F 1021.9 in SW 9.3 mph 9.3 mph 81 % 0.0 in 14.0 W/m2 BKN
07:56 8.3 °F 5.2 °F 1022.2 in SW 8.0 mph 8.0 mph 81 % 0.0 in 18.0 W/m2 BKN
08:01 8.4 °F 5.4 °F 1022.2 in SW 9.3 mph 9.3 mph 81 % 0.0 in 21.0 W/m2 BKN
08:06 8.6 °F 5.3 °F 1022.2 in SSW 8.0 mph 8.0 mph 80 % 0.0 in 26.0 W/m2 BKN
08:11 8.6 °F 5.3 °F 1022.2 in SW 7.4 mph 7.4 mph 80 % 0.0 in 33.0 W/m2 BKN
08:16 8.6 °F 5.3 °F 1022.2 in SW 9.3 mph 9.3 mph 80 % 0.0 in 42.0 W/m2 BKN
08:21 8.8 °F 5.5 °F 1022.2 in SW 7.4 mph 7.4 mph 80 % 0.0 in 58.0 W/m2 SCT
08:26 8.9 °F 5.4 °F 1022.2 in SW 9.3 mph 9.3 mph 79 % 0.0 in 70.0 W/m2 FEW
08:31 9.1 °F 5.6 °F 1022.2 in SW 13.0 mph 13.0 mph 79 % 0.0 in 76.0 W/m2 FEW
08:41 9.6 °F 5.7 °F 1022.2 in WSW 11.1 mph 11.1 mph 77 % 0.0 in 116.0 W/m2 CLR
08:46 9.8 °F 5.8 °F 1022.2 in West 5.6 mph 5.6 mph 76 % 0.0 in 44.0 W/m2 CLR
08:51 10.1 °F 5.9 °F 1022.2 in WSW 6.4 mph 6.4 mph 75 % 0.0 in 84.0 W/m2 SCT
08:56 10.3 °F 5.7 °F 1022.2 in West 14.8 mph 14.8 mph 73 % 0.0 in 171.0 W/m2 FEW
09:01 10.5 °F 5.9 °F 1022.2 in West 18.5 mph 18.5 mph 73 % 0.0 in 192.0 W/m2 CLR
09:11 10.7 °F 5.9 °F 1022.2 in WSW 11.1 mph 11.1 mph 72 % 0.0 in 225.0 W/m2 CLR
09:16 10.9 °F 5.8 °F 1022.2 in WSW 13.0 mph 13.0 mph 71 % 0.0 in 241.0 W/m2 CLR
09:21 11.0 °F 5.7 °F 1022.2 in SW 20.4 mph 20.4 mph 70 % 0.0 in 260.0 W/m2 CLR
09:26 11.1 °F 5.8 °F 1021.9 in West 18.5 mph 18.5 mph 70 % 0.0 in 278.0 W/m2 CLR
09:31 11.3 °F 5.8 °F 1021.9 in WSW 18.5 mph 18.5 mph 69 % 0.0 in 294.0 W/m2 CLR
09:36 11.3 °F 5.8 °F 1021.9 in WSW 16.7 mph 16.7 mph 69 % 0.0 in 309.0 W/m2 CLR
09:41 11.4 °F 5.7 °F 1021.9 in West 20.4 mph 20.4 mph 68 % 0.0 in 325.0 W/m2 CLR
09:42 11.4 °F 5.7 °F 1021.9 in WNW 18.5 mph 18.5 mph 68 % 0.0 in 330.0 W/m2 CLR
09:47 11.5 °F 5.8 °F 1021.9 in WSW 18.5 mph 18.5 mph 68 % 0.0 in 348.0 W/m2 CLR
09:52 11.6 °F 5.8 °F 1021.9 in NW 24.1 mph 24.1 mph 68 % 0.0 in 362.0 W/m2 CLR
09:57 11.8 °F 5.8 °F 1021.9 in West 18.5 mph 18.5 mph 67 % 0.0 in 378.0 W/m2 CLR
10:02 11.9 °F 5.9 °F 1021.9 in WNW 20.4 mph 20.4 mph 67 % 0.0 in 396.0 W/m2 CLR
10:07 12.0 °F 5.8 °F 1021.9 in WNW 25.9 mph 25.9 mph 66 % 0.0 in 410.0 W/m2 CLR
10:12 12.2 °F 6.2 °F 1021.9 in West 16.1 mph 16.1 mph 67 % 0.0 in 425.0 W/m2 CLR
10:17 12.2 °F 6.0 °F 1021.9 in West 20.9 mph 20.9 mph 66 % 0.0 in 441.0 W/m2 CLR
10:22 12.2 °F 5.8 °F 1021.9 in West 18.5 mph 18.5 mph 65 % 0.0 in 455.0 W/m2 CLR
10:27 12.5 °F 6.1 °F 1021.9 in West 14.8 mph 14.8 mph 65 % 0.0 in 475.0 W/m2 CLR
10:28 12.6 °F 6.4 °F 1021.9 in WNW 24.1 mph 24.1 mph 66 % 0.0 in 475.0 W/m2 CLR
10:33 12.5 °F 5.7 °F 1021.9 in NW 33.3 mph 33.3 mph 63 % 0.0 in 490.0 W/m2 CLR
10:38 12.4 °F 5.8 °F 1021.9 in WSW 24.1 mph 24.1 mph 64 % 0.0 in 504.0 W/m2 CLR
10:43 12.6 °F 6.0 °F 1021.9 in West 25.9 mph 25.9 mph 64 % 0.0 in 519.0 W/m2 CLR
10:48 12.9 °F 6.3 °F 1021.9 in West 22.2 mph 22.2 mph 64 % 0.0 in 533.0 W/m2 CLR
10:53 13.1 °F 6.2 °F 1021.9 in West 25.9 mph 25.9 mph 63 % 0.0 in 543.0 W/m2 CLR
10:58 12.8 °F 5.7 °F 1021.9 in WSW 29.6 mph 29.6 mph 62 % 0.0 in 561.0 W/m2 CLR
11:03 13.1 °F 6.2 °F 1021.9 in WNW 29.6 mph 29.6 mph 63 % 0.0 in 571.0 W/m2 CLR
11:08 13.4 °F 6.5 °F 1021.6 in West 27.8 mph 27.8 mph 63 % 0.0 in 582.0 W/m2 CLR
11:13 13.4 °F 6.3 °F 1021.9 in WNW 17.7 mph 17.7 mph 62 % 0.0 in 599.0 W/m2 CLR
11:18 13.7 °F 6.3 °F 1021.9 in NW 24.1 mph 24.1 mph 61 % 0.0 in 610.0 W/m2 CLR
11:23 14.0 °F 6.6 °F 1021.9 in West 20.9 mph 20.9 mph 61 % 0.0 in 624.0 W/m2 CLR
11:28 13.9 °F 6.3 °F 1021.6 in West 24.1 mph 24.1 mph 60 % 0.0 in 635.0 W/m2 CLR
11:33 14.1 °F 6.4 °F 1021.6 in West 27.4 mph 27.4 mph 60 % 0.0 in 649.0 W/m2 CLR
11:38 14.1 °F 6.4 °F 1021.6 in WNW 29.6 mph 29.6 mph 60 % 0.0 in 666.0 W/m2 CLR
11:43 14.2 °F 6.3 °F 1021.6 in WNW 31.5 mph 31.5 mph 59 % 0.0 in 670.0 W/m2 CLR
11:48 14.2 °F 6.1 °F 1021.6 in West 29.6 mph 29.6 mph 58 % 0.0 in 686.0 W/m2 CLR
11:53 14.2 °F 6.1 °F 1021.6 in West 25.9 mph 25.9 mph 58 % 0.0 in 691.0 W/m2 CLR
11:58 14.6 °F 6.1 °F 1021.6 in West 24.1 mph 24.1 mph 57 % 0.0 in 700.0 W/m2 CLR
12:03 14.8 °F 6.1 °F 1021.6 in NW 24.1 mph 24.1 mph 56 % 0.0 in 721.0 W/m2 CLR
12:04 14.8 °F 6.1 °F 1021.6 in WNW 22.2 mph 22.2 mph 56 % 0.0 in 712.0 W/m2 CLR
12:09 14.9 °F 6.4 °F 1021.6 in WNW 29.6 mph 29.6 mph 57 % 0.0 in 722.0 W/m2 CLR
12:14 15.1 °F 6.4 °F 1021.2 in WNW 18.5 mph 18.5 mph 56 % 0.0 in 721.0 W/m2 CLR
12:19 15.3 °F 6.3 °F 1021.2 in WNW 27.8 mph 27.8 mph 55 % 0.0 in 735.0 W/m2 CLR
12:24 15.6 °F 6.0 °F 1021.2 in WNW 27.8 mph 27.8 mph 53 % 0.0 in 747.0 W/m2 CLR
12:29 15.5 °F 6.2 °F 1021.2 in NW 20.4 mph 20.4 mph 54 % 0.0 in 745.0 W/m2 CLR
12:34 15.6 °F 6.3 °F 1021.2 in WNW 22.2 mph 22.2 mph 54 % 0.0 in 761.0 W/m2 CLR
12:39 15.8 °F 6.5 °F 1021.2 in NNW 20.4 mph 20.4 mph 54 % 0.0 in 772.0 W/m2 CLR
12:44 16.2 °F 6.6 °F 1020.9 in NW 18.5 mph 18.5 mph 53 % 0.0 in 788.0 W/m2 CLR
12:49 16.4 °F 5.9 °F 1020.9 in West 25.9 mph 25.9 mph 50 % 0.0 in 784.0 W/m2 CLR
12:54 16.1 °F 6.2 °F 1020.9 in WNW 18.5 mph 18.5 mph 52 % 0.0 in 784.0 W/m2 CLR
12:59 16.3 °F 6.4 °F 1020.9 in West 16.1 mph 16.1 mph 52 % 0.0 in 791.0 W/m2 CLR
13:04 16.4 °F 5.9 °F 1020.9 in NW 24.1 mph 24.1 mph 50 % 0.0 in 798.0 W/m2 CLR
13:09 16.4 °F 6.2 °F 1020.9 in WNW 25.9 mph 25.9 mph 51 % 0.0 in 807.0 W/m2 CLR
13:14 16.4 °F 6.0 °F 1020.5 in NNW 31.5 mph 31.5 mph 50 % 0.0 in 807.0 W/m2 CLR
13:19 16.6 °F 6.1 °F 1020.5 in NNW 31.5 mph 31.5 mph 50 % 0.0 in 817.0 W/m2 CLR
13:24 16.8 °F 6.3 °F 1020.5 in NW 18.5 mph 18.5 mph 50 % 0.0 in 817.0 W/m2 CLR
13:29 16.9 °F 6.1 °F 1020.2 in NW 25.9 mph 25.9 mph 49 % 0.0 in 805.0 W/m2 CLR
13:34 16.9 °F 5.8 °F 1020.2 in NNW 31.5 mph 31.5 mph 48 % 0.0 in 810.0 W/m2 CLR
13:39 17.1 °F 6.6 °F 1019.9 in NW 25.9 mph 25.9 mph 50 % 0.0 in 824.0 W/m2 CLR
13:44 17.3 °F 6.2 °F 1020.2 in WNW 31.5 mph 31.5 mph 48 % 0.0 in 826.0 W/m2 CLR
13:49 17.2 °F 6.4 °F 1020.2 in NW 25.7 mph 25.7 mph 49 % 0.0 in 838.0 W/m2 CLR
13:54 17.3 °F 6.5 °F 1019.9 in NW 22.2 mph 22.2 mph 49 % 0.0 in 826.0 W/m2 CLR
13:59 17.4 °F 5.9 °F 1019.9 in NW 25.9 mph 25.9 mph 47 % 0.0 in 842.0 W/m2 CLR
14:04 17.4 °F 6.0 °F 1019.9 in NW 35.2 mph 35.2 mph 47 % 0.0 in 821.0 W/m2 CLR
14:09 17.7 °F 5.9 °F 1019.9 in WNW 31.5 mph 31.5 mph 46 % 0.0 in 838.0 W/m2 CLR
14:14 17.7 °F 5.9 °F 1019.5 in NNW 24.1 mph 24.1 mph 46 % 0.0 in 819.0 W/m2 CLR
14:19 17.9 °F 6.1 °F 1019.5 in West 24.1 mph 24.1 mph 46 % 0.0 in 831.0 W/m2 CLR
14:24 17.9 °F 5.8 °F 1019.2 in NW 35.2 mph 35.2 mph 45 % 0.0 in 833.0 W/m2 CLR
14:29 18.2 °F 6.1 °F 1019.2 in NW 27.4 mph 27.4 mph 45 % 0.0 in 821.0 W/m2 CLR
14:34 18.3 °F 5.1 °F 1019.2 in WNW 24.1 mph 24.1 mph 42 % 0.0 in 840.0 W/m2 CLR
14:39 18.5 °F 6.0 °F 1018.8 in WNW 24.1 mph 24.1 mph 44 % 0.0 in 830.0 W/m2 CLR
14:49 18.4 °F 5.9 °F 1018.8 in NW 31.5 mph 31.5 mph 44 % 0.0 in 816.0 W/m2 CLR
14:54 18.6 °F 5.8 °F 1018.8 in WNW 25.9 mph 25.9 mph 43 % 0.0 in 810.0 W/m2 CLR
14:59 18.8 °F 5.3 °F 1018.8 in WNW 27.8 mph 27.8 mph 41 % 0.0 in 810.0 W/m2 CLR
15:04 18.8 °F 5.6 °F 1018.5 in NW 20.4 mph 20.4 mph 42 % 0.0 in 807.0 W/m2 CLR
15:09 18.9 °F 5.3 °F 1018.5 in NNW 19.3 mph 19.3 mph 41 % 0.0 in 793.0 W/m2 CLR
15:14 19.2 °F 5.7 °F 1018.5 in WNW 25.9 mph 25.9 mph 41 % 0.0 in 791.0 W/m2 CLR
15:19 19.3 °F 5.7 °F 1018.2 in NW 20.4 mph 20.4 mph 41 % 0.0 in 807.0 W/m2 CLR
15:24 19.4 °F 5.4 °F 1018.2 in NW 37.0 mph 37.0 mph 40 % 0.0 in 796.0 W/m2 CLR
15:29 19.3 °F 5.3 °F 1018.2 in WNW 18.5 mph 18.5 mph 40 % 0.0 in 777.0 W/m2 CLR
15:30 19.3 °F 5.7 °F 1018.2 in WNW 18.5 mph 18.5 mph 41 % 0.0 in 754.0 W/m2 CLR
15:35 19.4 °F 5.1 °F 1017.8 in NW 25.9 mph 25.9 mph 39 % 0.0 in 761.0 W/m2 CLR
15:40 19.4 °F 5.4 °F 1017.8 in WNW 31.5 mph 31.5 mph 40 % 0.0 in 772.0 W/m2 CLR
15:45 19.6 °F 5.3 °F 1017.5 in WNW 27.4 mph 27.4 mph 39 % 0.0 in 772.0 W/m2 CLR
15:50 19.7 °F 5.0 °F 1017.5 in WNW 27.8 mph 27.8 mph 38 % 0.0 in 751.0 W/m2 CLR
15:55 19.8 °F 5.1 °F 1017.5 in NW 18.5 mph 18.5 mph 38 % 0.0 in 731.0 W/m2 CLR
16:00 19.8 °F 4.7 °F 1017.5 in WNW 25.9 mph 25.9 mph 37 % 0.0 in 729.0 W/m2 CLR
16:05 19.8 °F 4.3 °F 1017.5 in NNW 25.9 mph 25.9 mph 36 % 0.0 in 744.0 W/m2 CLR
16:10 19.8 °F 4.3 °F 1017.2 in West 24.1 mph 24.1 mph 36 % 0.0 in 745.0 W/m2 CLR
16:15 20.1 °F 4.9 °F 1017.2 in NNW 18.5 mph 18.5 mph 37 % 0.0 in 671.0 W/m2 CLR
16:20 20.2 °F 3.8 °F 1017.2 in NNW 24.1 mph 24.1 mph 34 % 0.0 in 670.0 W/m2 CLR
16:25 20.2 °F 3.8 °F 1016.8 in NW 29.6 mph 29.6 mph 34 % 0.0 in 642.0 W/m2 CLR
16:30 20.1 °F 4.2 °F 1016.8 in NNW 29.6 mph 29.6 mph 35 % 0.0 in 575.0 W/m2 CLR
16:35 20.2 °F 4.7 °F 1016.8 in NW 22.5 mph 22.5 mph 36 % 0.0 in 568.0 W/m2 CLR
16:40 20.2 °F 4.7 °F 1016.8 in NNW 27.8 mph 27.8 mph 36 % 0.0 in 628.0 W/m2 CLR
16:45 20.2 °F 4.3 °F 1016.8 in NNW 29.6 mph 29.6 mph 35 % 0.0 in 545.0 W/m2 CLR
16:50 20.2 °F 4.2 °F 1016.8 in NW 17.7 mph 17.7 mph 35 % 0.0 in 629.0 W/m2 CLR
16:55 20.4 °F 4.8 °F 1016.8 in NNW 20.4 mph 20.4 mph 36 % 0.0 in 608.0 W/m2 CLR
17:00 20.6 °F 3.3 °F 1016.8 in WNW 29.6 mph 29.6 mph 32 % 0.0 in 605.0 W/m2 CLR
17:05 20.6 °F 2.8 °F 1016.8 in NNW 31.5 mph 31.5 mph 31 % 0.0 in 591.0 W/m2 CLR
17:10 20.6 °F 3.3 °F 1016.5 in WNW 27.8 mph 27.8 mph 32 % 0.0 in 568.0 W/m2 CLR
17:15 20.6 °F 3.3 °F 1016.5 in WNW 24.1 mph 24.1 mph 32 % 0.0 in 559.0 W/m2 CLR
17:20 20.7 °F 4.3 °F 1016.5 in NW 18.5 mph 18.5 mph 34 % 0.0 in 545.0 W/m2 CLR
17:21 20.7 °F 3.8 °F 1016.5 in NNW 27.8 mph 27.8 mph 33 % 0.0 in 543.0 W/m2 CLR
17:26 20.6 °F 4.1 °F 1016.5 in NNW 29.6 mph 29.6 mph 34 % 0.0 in 529.0 W/m2 CLR
17:31 20.5 °F 4.5 °F 1016.5 in NNW 18.5 mph 18.5 mph 35 % 0.0 in 510.0 W/m2 CLR
17:36 20.6 °F 3.8 °F 1016.5 in North 22.5 mph 22.5 mph 33 % 0.0 in 501.0 W/m2 CLR
17:41 20.6 °F 3.8 °F 1016.5 in NW 24.1 mph 24.1 mph 33 % 0.0 in 475.0 W/m2 CLR
17:46 20.6 °F 3.7 °F 1016.1 in WNW 27.8 mph 27.8 mph 33 % 0.0 in 464.0 W/m2 CLR
17:51 20.6 °F 4.1 °F 1016.1 in NW 25.9 mph 25.9 mph 34 % 0.0 in 452.0 W/m2 CLR
17:56 20.7 °F 3.8 °F 1016.1 in NW 25.9 mph 25.9 mph 33 % 0.0 in 425.0 W/m2 CLR
18:01 20.6 °F 3.8 °F 1016.1 in NNW 24.1 mph 24.1 mph 33 % 0.0 in 406.0 W/m2 CLR
18:06 20.6 °F 4.2 °F 1016.1 in NNW 27.8 mph 27.8 mph 34 % 0.0 in 399.0 W/m2 CLR
18:11 20.5 °F 3.2 °F 1016.1 in NNW 29.6 mph 29.6 mph 32 % 0.0 in 387.0 W/m2 CLR
18:16 20.4 °F 3.6 °F 1016.1 in NW 25.9 mph 25.9 mph 33 % 0.0 in 373.0 W/m2 CLR
18:21 20.5 °F 4.1 °F 1016.1 in NW 18.5 mph 18.5 mph 34 % 0.0 in 345.0 W/m2 CLR
18:26 20.6 °F 4.6 °F 1016.1 in NW 20.4 mph 20.4 mph 35 % 0.0 in 332.0 W/m2 CLR
18:31 20.6 °F 4.6 °F 1016.1 in NW 25.9 mph 25.9 mph 35 % 0.0 in 315.0 W/m2 CLR
18:36 20.4 °F 4.4 °F 1016.1 in WNW 22.2 mph 22.2 mph 35 % 0.0 in 301.0 W/m2 CLR
18:41 20.4 °F 4.4 °F 1015.8 in NW 24.1 mph 24.1 mph 35 % 0.0 in 281.0 W/m2 CLR
18:46 20.5 °F 4.1 °F 1015.8 in NW 24.1 mph 24.1 mph 34 % 0.0 in 267.0 W/m2 CLR
18:51 20.3 °F 4.3 °F 1015.8 in NNW 27.4 mph 27.4 mph 35 % 0.0 in 250.0 W/m2 CLR
18:56 20.2 °F 4.3 °F 1015.8 in WNW 25.9 mph 25.9 mph 35 % 0.0 in 237.0 W/m2 CLR
19:01 20.2 °F 3.8 °F 1015.8 in NNW 24.1 mph 24.1 mph 34 % 0.0 in 213.0 W/m2 CLR
19:07 20.2 °F 3.8 °F 1015.8 in WNW 18.5 mph 18.5 mph 34 % 0.0 in 192.0 W/m2 CLR
19:12 20.2 °F 4.2 °F 1015.8 in NW 11.1 mph 11.1 mph 35 % 0.0 in 174.0 W/m2 CLR
19:17 20.3 °F 4.7 °F 1016.1 in NW 5.6 mph 5.6 mph 36 % 0.0 in 156.0 W/m2 CLR
19:22 20.1 °F 4.5 °F 1016.1 in NW 22.2 mph 22.2 mph 36 % 0.0 in 141.0 W/m2 CLR
19:27 19.8 °F 4.3 °F 1016.1 in NNW 27.8 mph 27.8 mph 36 % 0.0 in 118.0 W/m2 CLR
19:32 19.6 °F 4.1 °F 1016.1 in NW 24.1 mph 24.1 mph 36 % 0.0 in 102.0 W/m2 CLR
19:37 19.6 °F 4.4 °F 1016.1 in NW 18.5 mph 18.5 mph 37 % 0.0 in 88.0 W/m2 CLR
19:42 19.5 °F 4.4 °F 1016.5 in WNW 18.5 mph 18.5 mph 37 % 0.0 in 74.0 W/m2 FEW
19:43 19.4 °F 4.4 °F 1016.5 in NW 18.5 mph 18.5 mph 37 % 0.0 in 65.0 W/m2 SCT
19:48 19.2 °F 4.5 °F 1016.5 in NW 29.6 mph 29.6 mph 38 % 0.0 in 47.0 W/m2 SCT
19:53 19.0 °F 4.7 °F 1016.5 in NW 16.7 mph 16.7 mph 39 % 0.0 in 42.0 W/m2 BKN
19:58 18.9 °F 4.6 °F 1016.5 in WNW 22.5 mph 22.5 mph 39 % 0.0 in 33.0 W/m2 BKN
20:03 18.7 °F 4.8 °F 1016.5 in NW 18.5 mph 18.5 mph 40 % 0.0 in 25.0 W/m2 BKN
20:08 18.4 °F 4.9 °F 1016.5 in NNW 18.5 mph 18.5 mph 41 % 0.0 in 18.0 W/m2 BKN
20:13 18.2 °F 5.1 °F 1016.5 in NW 19.3 mph 19.3 mph 42 % 0.0 in 14.0 W/m2 BKN
20:18 17.9 °F 5.2 °F 1016.5 in NW 18.5 mph 18.5 mph 43 % 0.0 in 12.0 W/m2 BKN
20:23 17.7 °F 5.0 °F 1016.5 in West 7.4 mph 7.4 mph 43 % 0.0 in 7.0 W/m2 BKN
20:28 17.6 °F 5.2 °F 1016.5 in West 5.6 mph 5.6 mph 44 % 0.0 in 5.0 W/m2 OVC
20:33 17.4 °F 5.3 °F 1016.8 in WNW 13.0 mph 13.0 mph 45 % 0.0 in 0.0 W/m2 OVC
20:38 17.2 °F 5.2 °F 1016.8 in WNW 7.4 mph 7.4 mph 45 % 0.0 in 0.0 W/m2 OVC
20:44 17.0 °F 5.3 °F 1016.8 in Calm     46 % 0.0 in 0.0 W/m2 CLR
20:54 16.7 °F 5.1 °F 1016.8 in WNW 5.6 mph 5.6 mph 46 % 0.0 in 0.0 W/m2 CLR
20:59 16.6 °F 4.9 °F 1016.8 in WNW 18.5 mph 18.5 mph 46 % 0.0 in 0.0 W/m2 CLR
21:04 16.6 °F 4.9 °F 1017.2 in West 5.6 mph 7.7 mph 46 % 0.0 in 0.0 W/m2 CLR
21:09 16.7 °F 4.7 °F 1017.2 in West 11.3 mph 11.3 mph 45 % 0.0 in 0.0 W/m2 CLR
21:14 16.6 °F 4.9 °F 1017.2 in West 18.5 mph 18.5 mph 46 % 0.0 in 0.0 W/m2 CLR
21:19 16.4 °F 4.8 °F 1017.2 in WSW 13.0 mph 13.0 mph 46 % 0.0 in 0.0 W/m2 CLR
21:24 16.3 °F 4.7 °F 1017.5 in WSW 1.9 mph 1.9 mph 46 % 0.0 in 0.0 W/m2 CLR
21:29 16.2 °F 4.8 °F 1017.5 in West 5.6 mph 5.6 mph 47 % 0.0 in 0.0 W/m2 CLR
21:34 16.1 °F 4.7 °F 1017.8 in NW 1.9 mph 4.2 mph 47 % 0.0 in 0.0 W/m2 CLR
21:39 15.9 °F 4.6 °F 1017.8 in Calm     47 % 0.0 in 0.0 W/m2 CLR
21:44 15.8 °F 4.6 °F 1017.8 in WSW 1.6 mph 1.6 mph 47 % 0.0 in 0.0 W/m2 CLR
21:49 15.8 °F 4.8 °F 1017.8 in Calm     48 % 0.0 in 0.0 W/m2 CLR
21:54 15.6 °F 4.6 °F 1017.8 in West 5.6 mph 5.6 mph 48 % 0.0 in 0.0 W/m2 CLR
21:59 15.4 °F 4.5 °F 1018.2 in Calm   0.5 mph 48 % 0.0 in 0.0 W/m2 CLR
22:04 15.4 °F 4.5 °F 1018.2 in West 5.6 mph 5.6 mph 48 % 0.0 in 0.0 W/m2 CLR
22:09 15.4 °F 4.4 °F 1018.2 in West 5.6 mph 5.6 mph 48 % 0.0 in 0.0 W/m2 CLR
22:14 15.2 °F 4.6 °F 1018.2 in Calm     49 % 0.0 in 0.0 W/m2 CLR
22:19 15.0 °F 4.7 °F 1018.5 in Calm     50 % 0.0 in 0.0 W/m2 CLR
22:24 14.7 °F 4.6 °F 1018.5 in WSW 5.6 mph 5.6 mph 51 % 0.0 in 0.0 W/m2 CLR
22:29 14.5 °F 4.5 °F 1018.5 in West 5.6 mph 5.6 mph 51 % 0.0 in 0.0 W/m2 CLR
22:34 14.6 °F 4.3 °F 1018.5 in West 7.4 mph 7.4 mph 50 % 0.0 in 0.0 W/m2 CLR
22:39 14.6 °F 4.3 °F 1018.5 in WSW 3.7 mph 3.7 mph 50 % 0.0 in 0.0 W/m2 CLR
22:44 14.4 °F 4.4 °F 1018.8 in Calm     51 % 0.0 in 0.0 W/m2 CLR
22:49 14.3 °F 4.3 °F 1018.8 in Calm     51 % 0.0 in 0.0 W/m2 CLR
22:54 14.1 °F 4.3 °F 1018.8 in WSW 5.6 mph 5.6 mph 52 % 0.0 in 0.0 W/m2 CLR
22:59 13.9 °F 4.2 °F 1018.8 in WSW 5.6 mph 5.6 mph 52 % 0.0 in 0.0 W/m2 CLR
23:04 13.9 °F 4.2 °F 1018.8 in WSW 9.3 mph 9.3 mph 52 % 0.0 in 0.0 W/m2 CLR
23:09 13.9 °F 4.2 °F 1019.2 in SW 5.6 mph 5.6 mph 52 % 0.0 in 0.0 W/m2 CLR
23:14 13.7 °F 4.1 °F 1019.2 in WSW 9.3 mph 9.3 mph 52 % 0.0 in 0.0 W/m2 CLR
23:19 13.6 °F 4.2 °F 1019.2 in WSW 7.4 mph 7.4 mph 53 % 0.0 in 0.0 W/m2 CLR
23:24 13.6 °F 3.9 °F 1019.2 in WSW 8.0 mph 8.0 mph 52 % 0.0 in 0.0 W/m2 CLR
23:29 13.6 °F 3.9 °F 1019.2 in WSW 5.6 mph 5.6 mph 52 % 0.0 in 0.0 W/m2 CLR
23:34 13.4 °F 4.1 °F 1019.5 in SW 4.8 mph 4.8 mph 53 % 0.0 in 0.0 W/m2 CLR
23:39 13.2 °F 4.1 °F 1019.5 in SSW 7.4 mph 7.4 mph 54 % 0.0 in 0.0 W/m2 CLR
23:44 12.9 °F 4.1 °F 1019.5 in WSW 7.4 mph 7.4 mph 55 % 0.0 in 0.0 W/m2 CLR
23:49 12.9 °F 4.1 °F 1019.5 in West 7.4 mph 7.4 mph 55 % 0.0 in 0.0 W/m2 CLR
23:54 13.1 °F 4.3 °F 1019.9 in West 3.7 mph 3.7 mph 55 % 0.0 in 0.0 W/m2 CLR
23:59 13.2 °F 4.6 °F 1019.9 in WSW 5.6 mph 5.6 mph 56 % 0.0 in 0.0 W/m2 CLR
Lo Temps de Massalio
Compliments of Weather Underground - 1.25 mb